sensor_id;sensor_type;location;lat;lon;timestamp;P1;durP1;ratioP1;P2;durP2;ratioP2
8401;SDS011;4238;48.404;9.498;2023-07-22T04:02:50;2.47;;;2.37;;
8401;SDS011;4238;48.404;9.498;2023-07-22T04:05:17;3.07;;;2.87;;
8401;SDS011;4238;48.404;9.498;2023-07-22T04:07:44;2.77;;;2.57;;
8401;SDS011;4238;48.404;9.498;2023-07-22T04:10:11;3.33;;;2.67;;
8401;SDS011;4238;48.404;9.498;2023-07-22T04:12:38;2.73;;;2.53;;
8401;SDS011;4238;48.404;9.498;2023-07-22T04:15:05;2.70;;;2.50;;
8401;SDS011;4238;48.404;9.498;2023-07-22T04:17:33;2.43;;;2.20;;
8401;SDS011;4238;48.404;9.498;2023-07-22T04:20:01;3.57;;;2.73;;
8401;SDS011;4238;48.404;9.498;2023-07-22T04:22:28;2.77;;;2.40;;
8401;SDS011;4238;48.404;9.498;2023-07-22T04:24:56;3.37;;;2.20;;
8401;SDS011;4238;48.404;9.498;2023-07-22T04:27:22;2.53;;;2.33;;
8401;SDS011;4238;48.404;9.498;2023-07-22T04:29:49;3.00;;;2.63;;
8401;SDS011;4238;48.404;9.498;2023-07-22T04:32:17;3.00;;;2.70;;
8401;SDS011;4238;48.404;9.498;2023-07-22T04:34:43;2.83;;;2.63;;
8401;SDS011;4238;48.404;9.498;2023-07-22T04:37:12;3.00;;;2.47;;
8401;SDS011;4238;48.404;9.498;2023-07-22T04:39:38;2.87;;;2.40;;
8401;SDS011;4238;48.404;9.498;2023-07-22T04:42:06;3.03;;;2.73;;
8401;SDS011;4238;48.404;9.498;2023-07-22T04:44:33;3.70;;;3.07;;
8401;SDS011;4238;48.404;9.498;2023-07-22T04:47:00;2.70;;;2.50;;
8401;SDS011;4238;48.404;9.498;2023-07-22T04:49:27;2.97;;;2.77;;
8401;SDS011;4238;48.404;9.498;2023-07-22T04:51:54;3.30;;;2.80;;
8401;SDS011;4238;48.404;9.498;2023-07-22T04:54:23;3.23;;;2.90;;
8401;SDS011;4238;48.404;9.498;2023-07-22T04:56:53;2.97;;;2.77;;
8401;SDS011;4238;48.404;9.498;2023-07-22T04:59:20;3.13;;;2.80;;
8401;SDS011;4238;48.404;9.498;2023-07-22T05:01:46;2.97;;;2.77;;
8401;SDS011;4238;48.404;9.498;2023-07-22T05:04:13;2.97;;;2.77;;
8401;SDS011;4238;48.404;9.498;2023-07-22T05:06:40;3.60;;;3.30;;
8401;SDS011;4238;48.404;9.498;2023-07-22T05:09:07;3.00;;;2.80;;
8401;SDS011;4238;48.404;9.498;2023-07-22T05:11:35;3.03;;;2.83;;
8401;SDS011;4238;48.404;9.498;2023-07-22T05:14:02;2.95;;;2.75;;
8401;SDS011;4238;48.404;9.498;2023-07-22T05:16:30;3.13;;;2.88;;
8401;SDS011;4238;48.404;9.498;2023-07-22T05:18:57;2.77;;;2.57;;
8401;SDS011;4238;48.404;9.498;2023-07-22T05:21:24;3.28;;;3.08;;
8401;SDS011;4238;48.404;9.498;2023-07-22T05:23:50;3.28;;;2.97;;
8401;SDS011;4238;48.404;9.498;2023-07-22T05:26:17;3.58;;;2.85;;
8401;SDS011;4238;48.404;9.498;2023-07-22T05:28:46;2.85;;;2.65;;
8401;SDS011;4238;48.404;9.498;2023-07-22T05:31:13;3.00;;;2.78;;
8401;SDS011;4238;48.404;9.498;2023-07-22T05:33:39;3.78;;;3.35;;
8401;SDS011;4238;48.404;9.498;2023-07-22T05:36:06;2.95;;;2.75;;
8401;SDS011;4238;48.404;9.498;2023-07-22T05:38:33;2.95;;;2.65;;
8401;SDS011;4238;48.404;9.498;2023-07-22T05:41:00;2.67;;;2.50;;
8401;SDS011;4238;48.404;9.498;2023-07-22T05:43:27;3.20;;;3.00;;
8401;SDS011;4238;48.404;9.498;2023-07-22T05:45:55;2.92;;;2.72;;
8401;SDS011;4238;48.404;9.498;2023-07-22T05:48:22;3.05;;;2.80;;
8401;SDS011;4238;48.404;9.498;2023-07-22T05:50:49;2.70;;;2.50;;
8401;SDS011;4238;48.404;9.498;2023-07-22T05:53:17;2.90;;;2.70;;
8401;SDS011;4238;48.404;9.498;2023-07-22T05:55:43;3.42;;;2.95;;
8401;SDS011;4238;48.404;9.498;2023-07-22T05:58:15;2.92;;;2.60;;
8401;SDS011;4238;48.404;9.498;2023-07-22T06:00:42;4.18;;;3.00;;
8401;SDS011;4238;48.404;9.498;2023-07-22T06:03:10;3.45;;;3.15;;
8401;SDS011;4238;48.404;9.498;2023-07-22T06:05:37;3.60;;;3.30;;
8401;SDS011;4238;48.404;9.498;2023-07-22T06:08:04;3.22;;;3.03;;
8401;SDS011;4238;48.404;9.498;2023-07-22T06:10:31;3.35;;;2.92;;
8401;SDS011;4238;48.404;9.498;2023-07-22T06:12:58;3.50;;;3.20;;
8401;SDS011;4238;48.404;9.498;2023-07-22T06:15:25;2.78;;;2.50;;
8401;SDS011;4238;48.404;9.498;2023-07-22T06:17:52;3.45;;;3.15;;
8401;SDS011;4238;48.404;9.498;2023-07-22T06:20:20;3.08;;;2.60;;
8401;SDS011;4238;48.404;9.498;2023-07-22T06:22:47;4.22;;;2.97;;
8401;SDS011;4238;48.404;9.498;2023-07-22T06:25:14;4.15;;;2.90;;
8401;SDS011;4238;48.404;9.498;2023-07-22T06:27:41;3.03;;;2.83;;
8401;SDS011;4238;48.404;9.498;2023-07-22T06:30:09;2.88;;;2.67;;
8401;SDS011;4238;48.404;9.498;2023-07-22T06:32:37;3.03;;;2.83;;
8401;SDS011;4238;48.404;9.498;2023-07-22T06:35:04;2.72;;;2.53;;
8401;SDS011;4238;48.404;9.498;2023-07-22T06:37:33;2.90;;;2.60;;
8401;SDS011;4238;48.404;9.498;2023-07-22T06:40:00;2.72;;;2.53;;
8401;SDS011;4238;48.404;9.498;2023-07-22T06:42:27;2.53;;;2.33;;
8401;SDS011;4238;48.404;9.498;2023-07-22T06:44:54;2.72;;;2.53;;
8401;SDS011;4238;48.404;9.498;2023-07-22T06:47:21;2.60;;;2.40;;
8401;SDS011;4238;48.404;9.498;2023-07-22T06:49:51;3.10;;;2.65;;
8401;SDS011;4238;48.404;9.498;2023-07-22T06:52:18;3.13;;;2.83;;
8401;SDS011;4238;48.404;9.498;2023-07-22T06:54:46;2.17;;;2.08;;
8401;SDS011;4238;48.404;9.498;2023-07-22T06:57:13;3.97;;;2.20;;
8401;SDS011;4238;48.404;9.498;2023-07-22T06:59:40;2.20;;;2.00;;
8401;SDS011;4238;48.404;9.498;2023-07-22T07:02:06;3.78;;;2.55;;
8401;SDS011;4238;48.404;9.498;2023-07-22T07:04:34;2.15;;;2.05;;
8401;SDS011;4238;48.404;9.498;2023-07-22T07:07:01;2.03;;;1.92;;
8401;SDS011;4238;48.404;9.498;2023-07-22T07:09:28;3.13;;;1.92;;
8401;SDS011;4238;48.404;9.498;2023-07-22T07:11:56;2.10;;;1.88;;
8401;SDS011;4238;48.404;9.498;2023-07-22T07:14:23;2.28;;;2.17;;
8401;SDS011;4238;48.404;9.498;2023-07-22T07:16:50;2.83;;;2.63;;
8401;SDS011;4238;48.404;9.498;2023-07-22T07:19:17;1.98;;;1.88;;
8401;SDS011;4238;48.404;9.498;2023-07-22T07:21:44;1.90;;;1.80;;
8401;SDS011;4238;48.404;9.498;2023-07-22T07:24:11;2.25;;;2.03;;
8401;SDS011;4238;48.404;9.498;2023-07-22T07:26:38;2.22;;;2.00;;
8401;SDS011;4238;48.404;9.498;2023-07-22T07:29:06;1.92;;;1.83;;
8401;SDS011;4238;48.404;9.498;2023-07-22T07:31:33;1.92;;;1.73;;
8401;SDS011;4238;48.404;9.498;2023-07-22T07:34:00;1.58;;;1.48;;
8401;SDS011;4238;48.404;9.498;2023-07-22T07:36:27;2.20;;;2.00;;
8401;SDS011;4238;48.404;9.498;2023-07-22T07:38:54;3.08;;;2.10;;
8401;SDS011;4238;48.404;9.498;2023-07-22T07:41:21;2.45;;;2.20;;
8401;SDS011;4238;48.404;9.498;2023-07-22T07:43:48;2.38;;;2.28;;
8401;SDS011;4238;48.404;9.498;2023-07-22T07:46:17;1.80;;;1.70;;
8401;SDS011;4238;48.404;9.498;2023-07-22T07:48:46;3.70;;;2.53;;
8401;SDS011;4238;48.404;9.498;2023-07-22T07:51:14;2.55;;;2.35;;
8401;SDS011;4238;48.404;9.498;2023-07-22T07:53:42;2.13;;;2.03;;
8401;SDS011;4238;48.404;9.498;2023-07-22T07:56:10;2.38;;;2.17;;
8401;SDS011;4238;48.404;9.498;2023-07-22T07:58:38;1.73;;;1.60;;
8401;SDS011;4238;48.404;9.498;2023-07-22T08:01:05;2.17;;;2.05;;
8401;SDS011;4238;48.404;9.498;2023-07-22T08:03:34;1.50;;;1.50;;
8401;SDS011;4238;48.404;9.498;2023-07-22T08:06:02;3.35;;;1.65;;
8401;SDS011;4238;48.404;9.498;2023-07-22T08:08:31;2.30;;;2.20;;
8401;SDS011;4238;48.404;9.498;2023-07-22T08:10:59;1.70;;;1.58;;
8401;SDS011;4238;48.404;9.498;2023-07-22T08:13:26;2.00;;;1.90;;
8401;SDS011;4238;48.404;9.498;2023-07-22T08:15:55;2.08;;;1.98;;
8401;SDS011;4238;48.404;9.498;2023-07-22T08:18:21;1.95;;;1.70;;
8401;SDS011;4238;48.404;9.498;2023-07-22T08:20:50;3.28;;;2.10;;
8401;SDS011;4238;48.404;9.498;2023-07-22T08:23:17;2.00;;;1.80;;
8401;SDS011;4238;48.404;9.498;2023-07-22T08:25:44;1.88;;;1.77;;
8401;SDS011;4238;48.404;9.498;2023-07-22T08:28:11;1.88;;;1.73;;
8401;SDS011;4238;48.404;9.498;2023-07-22T08:30:38;2.72;;;1.98;;
8401;SDS011;4238;48.404;9.498;2023-07-22T08:33:07;2.30;;;2.10;;
8401;SDS011;4238;48.404;9.498;2023-07-22T08:35:34;2.30;;;2.20;;
8401;SDS011;4238;48.404;9.498;2023-07-22T08:38:03;1.85;;;1.75;;
8401;SDS011;4238;48.404;9.498;2023-07-22T08:40:32;2.65;;;1.85;;
8401;SDS011;4238;48.404;9.498;2023-07-22T08:43:00;3.92;;;2.08;;
8401;SDS011;4238;48.404;9.498;2023-07-22T08:45:29;3.92;;;2.17;;
8401;SDS011;4238;48.404;9.498;2023-07-22T08:47:59;2.05;;;1.95;;
8401;SDS011;4238;48.404;9.498;2023-07-22T08:50:34;1.65;;;1.58;;
8401;SDS011;4238;48.404;9.498;2023-07-22T08:53:09;2.25;;;2.15;;
8401;SDS011;4238;48.404;9.498;2023-07-22T08:55:36;1.95;;;1.85;;
8401;SDS011;4238;48.404;9.498;2023-07-22T08:58:05;2.13;;;2.03;;
8401;SDS011;4238;48.404;9.498;2023-07-22T09:00:34;1.95;;;1.85;;
8401;SDS011;4238;48.404;9.498;2023-07-22T09:03:01;1.92;;;1.77;;
8401;SDS011;4238;48.404;9.498;2023-07-22T09:05:30;2.03;;;1.88;;
8401;SDS011;4238;48.404;9.498;2023-07-22T09:07:58;1.90;;;1.80;;
8401;SDS011;4238;48.404;9.498;2023-07-22T09:10:28;1.90;;;1.80;;
8401;SDS011;4238;48.404;9.498;2023-07-22T09:12:55;2.58;;;1.60;;
8401;SDS011;4238;48.404;9.498;2023-07-22T09:15:23;1.90;;;1.80;;
8401;SDS011;4238;48.404;9.498;2023-07-22T09:17:51;1.80;;;1.70;;
8401;SDS011;4238;48.404;9.498;2023-07-22T09:20:18;1.75;;;1.63;;
8401;SDS011;4238;48.404;9.498;2023-07-22T09:22:46;1.95;;;1.83;;
8401;SDS011;4238;48.404;9.498;2023-07-22T09:25:15;1.80;;;1.70;;
8401;SDS011;4238;48.404;9.498;2023-07-22T09:27:45;2.28;;;1.45;;
8401;SDS011;4238;48.404;9.498;2023-07-22T09:30:20;2.55;;;1.98;;
8401;SDS011;4238;48.404;9.498;2023-07-22T09:32:49;2.13;;;2.03;;
8401;SDS011;4238;48.404;9.498;2023-07-22T09:35:16;1.88;;;1.77;;
8401;SDS011;4238;48.404;9.498;2023-07-22T09:37:43;2.53;;;1.92;;
8401;SDS011;4238;48.404;9.498;2023-07-22T09:40:14;2.20;;;2.03;;
8401;SDS011;4238;48.404;9.498;2023-07-22T09:42:48;2.13;;;1.98;;
8401;SDS011;4238;48.404;9.498;2023-07-22T09:45:16;2.20;;;2.10;;
8401;SDS011;4238;48.404;9.498;2023-07-22T09:47:44;1.77;;;1.55;;
8401;SDS011;4238;48.404;9.498;2023-07-22T09:50:13;2.45;;;1.77;;
8401;SDS011;4238;48.404;9.498;2023-07-22T09:52:47;2.00;;;1.90;;
8401;SDS011;4238;48.404;9.498;2023-07-22T09:55:15;2.65;;;1.85;;
8401;SDS011;4238;48.404;9.498;2023-07-22T09:57:44;1.75;;;1.65;;
8401;SDS011;4238;48.404;9.498;2023-07-22T10:00:14;1.90;;;1.83;;
8401;SDS011;4238;48.404;9.498;2023-07-22T10:02:43;1.83;;;1.73;;
8401;SDS011;4238;48.404;9.498;2023-07-22T10:05:11;1.90;;;1.80;;
8401;SDS011;4238;48.404;9.498;2023-07-22T10:07:42;1.67;;;1.58;;
8401;SDS011;4238;48.404;9.498;2023-07-22T10:10:11;2.28;;;1.90;;
8401;SDS011;4238;48.404;9.498;2023-07-22T10:12:39;1.95;;;1.70;;
8401;SDS011;4238;48.404;9.498;2023-07-22T10:15:09;1.70;;;1.60;;
8401;SDS011;4238;48.404;9.498;2023-07-22T10:17:38;1.90;;;1.80;;
8401;SDS011;4238;48.404;9.498;2023-07-22T10:20:06;1.85;;;1.60;;
8401;SDS011;4238;48.404;9.498;2023-07-22T10:22:35;1.70;;;1.60;;
8401;SDS011;4238;48.404;9.498;2023-07-22T10:25:04;1.55;;;1.45;;
8401;SDS011;4238;48.404;9.498;2023-07-22T10:27:32;2.28;;;1.75;;
8401;SDS011;4238;48.404;9.498;2023-07-22T10:30:01;1.75;;;1.65;;
8401;SDS011;4238;48.404;9.498;2023-07-22T10:32:32;1.50;;;1.40;;
8401;SDS011;4238;48.404;9.498;2023-07-22T10:35:01;1.98;;;1.88;;
8401;SDS011;4238;48.404;9.498;2023-07-22T10:37:29;2.95;;;1.90;;
8401;SDS011;4238;48.404;9.498;2023-07-22T10:39:58;2.08;;;1.98;;
8401;SDS011;4238;48.404;9.498;2023-07-22T10:42:27;1.75;;;1.65;;
8401;SDS011;4238;48.404;9.498;2023-07-22T10:44:59;2.05;;;1.88;;
8401;SDS011;4238;48.404;9.498;2023-07-22T10:47:33;1.80;;;1.70;;
8401;SDS011;4238;48.404;9.498;2023-07-22T10:50:06;1.55;;;1.55;;
8401;SDS011;4238;48.404;9.498;2023-07-22T10:52:38;1.98;;;1.88;;
8401;SDS011;4238;48.404;9.498;2023-07-22T10:55:13;2.30;;;2.20;;
8401;SDS011;4238;48.404;9.498;2023-07-22T10:57:50;2.20;;;2.10;;
8401;SDS011;4238;48.404;9.498;2023-07-22T11:00:18;2.05;;;1.95;;
8401;SDS011;4238;48.404;9.498;2023-07-22T11:02:47;1.92;;;1.83;;
8401;SDS011;4238;48.404;9.498;2023-07-22T11:05:48;2.00;;;1.90;;
8401;SDS011;4238;48.404;9.498;2023-07-22T11:11:08;2.65;;;1.95;;
8401;SDS011;4238;48.404;9.498;2023-07-22T11:13:39;2.25;;;1.98;;
8401;SDS011;4238;48.404;9.498;2023-07-22T11:16:09;1.98;;;1.88;;
8401;SDS011;4238;48.404;9.498;2023-07-22T11:18:37;2.15;;;2.03;;
8401;SDS011;4238;48.404;9.498;2023-07-22T11:21:10;1.92;;;1.83;;
8401;SDS011;4238;48.404;9.498;2023-07-22T11:23:38;2.63;;;1.88;;
8401;SDS011;4238;48.404;9.498;2023-07-22T11:26:04;2.38;;;2.20;;
8401;SDS011;4238;48.404;9.498;2023-07-22T11:28:31;2.20;;;2.10;;
8401;SDS011;4238;48.404;9.498;2023-07-22T11:30:58;2.40;;;2.20;;
8401;SDS011;4238;48.404;9.498;2023-07-22T11:33:26;2.42;;;2.20;;
8401;SDS011;4238;48.404;9.498;2023-07-22T11:36:04;2.05;;;1.95;;
8401;SDS011;4238;48.404;9.498;2023-07-22T11:38:32;2.70;;;2.38;;
8401;SDS011;4238;48.404;9.498;2023-07-22T11:40:59;2.40;;;2.20;;
8401;SDS011;4238;48.404;9.498;2023-07-22T11:43:26;2.40;;;2.30;;
8401;SDS011;4238;48.404;9.498;2023-07-22T11:45:53;2.25;;;2.15;;
8401;SDS011;4238;48.404;9.498;2023-07-22T11:48:20;2.53;;;2.30;;
8401;SDS011;4238;48.404;9.498;2023-07-22T11:50:47;2.35;;;2.25;;
8401;SDS011;4238;48.404;9.498;2023-07-22T11:53:14;2.58;;;2.47;;
8401;SDS011;4238;48.404;9.498;2023-07-22T11:55:43;2.25;;;2.15;;
8401;SDS011;4238;48.404;9.498;2023-07-22T11:58:10;3.00;;;2.17;;
8401;SDS011;4238;48.404;9.498;2023-07-22T12:00:37;2.42;;;2.30;;
8401;SDS011;4238;48.404;9.498;2023-07-22T12:03:08;2.50;;;2.40;;
8401;SDS011;4238;48.404;9.498;2023-07-22T12:05:35;2.40;;;2.30;;
8401;SDS011;4238;48.404;9.498;2023-07-22T12:08:03;3.28;;;2.85;;
8401;SDS011;4238;48.404;9.498;2023-07-22T12:10:31;2.60;;;2.40;;
8401;SDS011;4238;48.404;9.498;2023-07-22T12:13:01;2.55;;;2.35;;
8401;SDS011;4238;48.404;9.498;2023-07-22T12:15:28;2.22;;;2.00;;
8401;SDS011;4238;48.404;9.498;2023-07-22T12:17:56;3.22;;;2.90;;
8401;SDS011;4238;48.404;9.498;2023-07-22T12:20:25;3.05;;;2.65;;
8401;SDS011;4238;48.404;9.498;2023-07-22T12:22:53;2.60;;;2.40;;
8401;SDS011;4238;48.404;9.498;2023-07-22T12:25:20;2.80;;;2.60;;
8401;SDS011;4238;48.404;9.498;2023-07-22T12:27:47;2.97;;;2.33;;
8401;SDS011;4238;48.404;9.498;2023-07-22T12:30:16;2.80;;;2.55;;
8401;SDS011;4238;48.404;9.498;2023-07-22T12:32:43;3.35;;;2.15;;
8401;SDS011;4238;48.404;9.498;2023-07-22T12:35:10;2.70;;;2.50;;
8401;SDS011;4238;48.404;9.498;2023-07-22T12:37:38;2.38;;;2.28;;
8401;SDS011;4238;48.404;9.498;2023-07-22T12:40:06;2.53;;;2.33;;
8401;SDS011;4238;48.404;9.498;2023-07-22T12:42:33;2.78;;;2.58;;
8401;SDS011;4238;48.404;9.498;2023-07-22T12:45:00;2.70;;;2.50;;
8401;SDS011;4238;48.404;9.498;2023-07-22T12:47:29;2.58;;;2.47;;
8401;SDS011;4238;48.404;9.498;2023-07-22T12:49:57;2.53;;;2.33;;
8401;SDS011;4238;48.404;9.498;2023-07-22T12:52:24;2.47;;;2.38;;
8401;SDS011;4238;48.404;9.498;2023-07-22T12:54:51;2.83;;;2.63;;
8401;SDS011;4238;48.404;9.498;2023-07-22T12:57:17;2.50;;;2.40;;
8401;SDS011;4238;48.404;9.498;2023-07-22T12:59:44;2.83;;;2.58;;
8401;SDS011;4238;48.404;9.498;2023-07-22T13:02:11;3.20;;;3.00;;
8401;SDS011;4238;48.404;9.498;2023-07-22T13:04:39;2.92;;;2.65;;
8401;SDS011;4238;48.404;9.498;2023-07-22T13:07:06;2.60;;;2.40;;
8401;SDS011;4238;48.404;9.498;2023-07-22T13:09:33;2.90;;;2.75;;
8401;SDS011;4238;48.404;9.498;2023-07-22T13:12:00;2.63;;;2.42;;
8401;SDS011;4238;48.404;9.498;2023-07-22T13:14:27;2.65;;;2.45;;
8401;SDS011;4238;48.404;9.498;2023-07-22T13:16:54;2.88;;;2.67;;
8401;SDS011;4238;48.404;9.498;2023-07-22T13:19:21;2.90;;;2.70;;
8401;SDS011;4238;48.404;9.498;2023-07-22T13:21:49;3.08;;;2.78;;
8401;SDS011;4238;48.404;9.498;2023-07-22T13:24:16;3.22;;;2.97;;
8401;SDS011;4238;48.404;9.498;2023-07-22T13:26:43;3.10;;;2.90;;
8401;SDS011;4238;48.404;9.498;2023-07-22T13:29:10;2.97;;;2.78;;
8401;SDS011;4238;48.404;9.498;2023-07-22T13:31:36;3.22;;;3.03;;
8401;SDS011;4238;48.404;9.498;2023-07-22T13:34:03;3.10;;;2.88;;
8401;SDS011;4238;48.404;9.498;2023-07-22T13:36:30;3.10;;;2.90;;
8401;SDS011;4238;48.404;9.498;2023-07-22T13:38:58;3.28;;;3.08;;
8401;SDS011;4238;48.404;9.498;2023-07-22T13:41:25;3.85;;;3.25;;
8401;SDS011;4238;48.404;9.498;2023-07-22T13:43:52;3.35;;;3.15;;
8401;SDS011;4238;48.404;9.498;2023-07-22T13:46:19;3.60;;;3.30;;
8401;SDS011;4238;48.404;9.498;2023-07-22T13:48:46;3.47;;;3.20;;
8401;SDS011;4238;48.404;9.498;2023-07-22T13:51:13;2.90;;;2.70;;
8401;SDS011;4238;48.404;9.498;2023-07-22T13:53:41;3.40;;;3.10;;
8401;SDS011;4238;48.404;9.498;2023-07-22T13:56:09;3.10;;;2.90;;
8401;SDS011;4238;48.404;9.498;2023-07-22T13:58:36;3.15;;;2.95;;
8401;SDS011;4238;48.404;9.498;2023-07-22T14:01:02;3.47;;;3.17;;
8401;SDS011;4238;48.404;9.498;2023-07-22T14:03:29;3.50;;;3.20;;
8401;SDS011;4238;48.404;9.498;2023-07-22T14:05:56;4.25;;;3.85;;
8401;SDS011;4238;48.404;9.498;2023-07-22T14:08:23;4.10;;;3.70;;
8401;SDS011;4238;48.404;9.498;2023-07-22T14:10:50;3.85;;;3.30;;
8401;SDS011;4238;48.404;9.498;2023-07-22T14:13:18;4.15;;;3.40;;
8401;SDS011;4238;48.404;9.498;2023-07-22T14:15:45;4.28;;;3.30;;
8401;SDS011;4238;48.404;9.498;2023-07-22T14:18:12;3.58;;;3.28;;
8401;SDS011;4238;48.404;9.498;2023-07-22T14:20:42;3.63;;;3.33;;
8401;SDS011;4238;48.404;9.498;2023-07-22T14:23:09;3.42;;;3.13;;
8401;SDS011;4238;48.404;9.498;2023-07-22T14:25:35;3.30;;;2.78;;
8401;SDS011;4238;48.404;9.498;2023-07-22T14:28:02;3.50;;;3.20;;
8401;SDS011;4238;48.404;9.498;2023-07-22T14:30:31;3.60;;;3.30;;
8401;SDS011;4238;48.404;9.498;2023-07-22T14:32:58;3.67;;;3.38;;
8401;SDS011;4238;48.404;9.498;2023-07-22T14:35:25;3.72;;;3.40;;
8401;SDS011;4238;48.404;9.498;2023-07-22T14:37:52;3.60;;;3.30;;
8401;SDS011;4238;48.404;9.498;2023-07-22T14:40:19;3.38;;;3.15;;
8401;SDS011;4238;48.404;9.498;2023-07-22T14:42:46;3.75;;;3.40;;
8401;SDS011;4238;48.404;9.498;2023-07-22T14:45:13;3.85;;;3.28;;
8401;SDS011;4238;48.404;9.498;2023-07-22T14:47:41;3.65;;;3.38;;
8401;SDS011;4238;48.404;9.498;2023-07-22T14:50:08;4.63;;;3.25;;
8401;SDS011;4238;48.404;9.498;2023-07-22T14:52:35;4.25;;;3.35;;
8401;SDS011;4238;48.404;9.498;2023-07-22T14:55:03;3.50;;;3.30;;
8401;SDS011;4238;48.404;9.498;2023-07-22T14:57:29;3.33;;;3.08;;
8401;SDS011;4238;48.404;9.498;2023-07-22T14:59:56;4.07;;;3.50;;
8401;SDS011;4238;48.404;9.498;2023-07-22T15:02:23;3.35;;;3.15;;
8401;SDS011;4238;48.404;9.498;2023-07-22T15:04:51;4.60;;;4.13;;
8401;SDS011;4238;48.404;9.498;2023-07-22T15:07:18;4.03;;;3.63;;
8401;SDS011;4238;48.404;9.498;2023-07-22T15:09:45;5.45;;;4.05;;
8401;SDS011;4238;48.404;9.498;2023-07-22T15:12:12;3.92;;;3.60;;
8401;SDS011;4238;48.404;9.498;2023-07-22T15:14:39;3.67;;;3.47;;
8401;SDS011;4238;48.404;9.498;2023-07-22T15:17:06;3.80;;;3.50;;
8401;SDS011;4238;48.404;9.498;2023-07-22T15:19:33;4.10;;;3.38;;
8401;SDS011;4238;48.404;9.498;2023-07-22T15:22:01;3.67;;;3.38;;
8401;SDS011;4238;48.404;9.498;2023-07-22T15:24:28;3.75;;;3.45;;
8401;SDS011;4238;48.404;9.498;2023-07-22T15:26:55;4.13;;;3.70;;
8401;SDS011;4238;48.404;9.498;2023-07-22T15:29:22;3.70;;;3.40;;
8401;SDS011;4238;48.404;9.498;2023-07-22T15:31:49;3.75;;;3.45;;
8401;SDS011;4238;48.404;9.498;2023-07-22T15:34:16;4.30;;;3.90;;
8401;SDS011;4238;48.404;9.498;2023-07-22T15:36:43;3.88;;;3.58;;
8401;SDS011;4238;48.404;9.498;2023-07-22T15:39:11;3.70;;;3.40;;
8401;SDS011;4238;48.404;9.498;2023-07-22T15:41:38;4.50;;;4.10;;
8401;SDS011;4238;48.404;9.498;2023-07-22T15:44:05;4.00;;;3.60;;
8401;SDS011;4238;48.404;9.498;2023-07-22T15:46:32;4.63;;;3.63;;
8401;SDS011;4238;48.404;9.498;2023-07-22T15:48:59;3.60;;;3.30;;
8401;SDS011;4238;48.404;9.498;2023-07-22T15:51:26;4.32;;;3.75;;
8401;SDS011;4238;48.404;9.498;2023-07-22T15:53:53;4.43;;;3.47;;
8401;SDS011;4238;48.404;9.498;2023-07-22T15:56:22;3.50;;;3.20;;
8401;SDS011;4238;48.404;9.498;2023-07-22T15:58:49;3.75;;;3.30;;
8401;SDS011;4238;48.404;9.498;2023-07-22T16:01:16;4.13;;;3.47;;
8401;SDS011;4238;48.404;9.498;2023-07-22T16:03:42;4.03;;;3.72;;
8401;SDS011;4238;48.404;9.498;2023-07-22T16:06:09;3.80;;;3.50;;
8401;SDS011;4238;48.404;9.498;2023-07-22T16:08:36;3.75;;;3.47;;
8401;SDS011;4238;48.404;9.498;2023-07-22T16:11:03;5.03;;;3.83;;
8401;SDS011;4238;48.404;9.498;2023-07-22T16:13:31;3.95;;;3.65;;
8401;SDS011;4238;48.404;9.498;2023-07-22T16:15:58;4.30;;;3.90;;
8401;SDS011;4238;48.404;9.498;2023-07-22T16:18:25;3.72;;;3.42;;
8401;SDS011;4238;48.404;9.498;2023-07-22T16:20:52;4.30;;;3.90;;
8401;SDS011;4238;48.404;9.498;2023-07-22T16:23:19;4.07;;;3.60;;
8401;SDS011;4238;48.404;9.498;2023-07-22T16:25:47;3.90;;;3.50;;
8401;SDS011;4238;48.404;9.498;2023-07-22T16:28:14;4.18;;;3.78;;
8401;SDS011;4238;48.404;9.498;2023-07-22T16:30:42;4.15;;;3.38;;
8401;SDS011;4238;48.404;9.498;2023-07-22T16:33:10;3.72;;;3.47;;
8401;SDS011;4238;48.404;9.498;2023-07-22T16:35:37;4.32;;;3.47;;
8401;SDS011;4238;48.404;9.498;2023-07-22T16:38:04;3.70;;;3.40;;
8401;SDS011;4238;48.404;9.498;2023-07-22T16:40:31;4.10;;;3.70;;
8401;SDS011;4238;48.404;9.498;2023-07-22T16:42:58;3.28;;;2.97;;
8401;SDS011;4238;48.404;9.498;2023-07-22T16:45:25;4.85;;;3.60;;
8401;SDS011;4238;48.404;9.498;2023-07-22T16:47:53;4.68;;;3.50;;
8401;SDS011;4238;48.404;9.498;2023-07-22T16:50:20;3.92;;;3.25;;
8401;SDS011;4238;48.404;9.498;2023-07-22T16:52:47;3.70;;;3.40;;
8401;SDS011;4238;48.404;9.498;2023-07-22T16:55:14;4.25;;;3.85;;
8401;SDS011;4238;48.404;9.498;2023-07-22T16:57:41;3.67;;;3.30;;
8401;SDS011;4238;48.404;9.498;2023-07-22T17:00:08;3.45;;;3.22;;
8401;SDS011;4238;48.404;9.498;2023-07-22T17:05:09;4.20;;;3.80;;
8401;SDS011;4238;48.404;9.498;2023-07-22T17:07:36;4.28;;;3.97;;
8401;SDS011;4238;48.404;9.498;2023-07-22T17:10:04;4.00;;;3.60;;
8401;SDS011;4238;48.404;9.498;2023-07-22T17:12:32;3.70;;;3.40;;
8401;SDS011;4238;48.404;9.498;2023-07-22T17:14:59;4.70;;;4.35;;
8401;SDS011;4238;48.404;9.498;2023-07-22T17:17:26;4.30;;;3.90;;
8401;SDS011;4238;48.404;9.498;2023-07-22T17:19:53;5.05;;;3.88;;
8401;SDS011;4238;48.404;9.498;2023-07-22T17:22:21;3.35;;;3.15;;
8401;SDS011;4238;48.404;9.498;2023-07-22T17:24:48;4.05;;;3.75;;
8401;SDS011;4238;48.404;9.498;2023-07-22T17:27:15;3.58;;;3.28;;
8401;SDS011;4238;48.404;9.498;2023-07-22T17:29:42;4.22;;;3.83;;
8401;SDS011;4238;48.404;9.498;2023-07-22T17:32:09;3.60;;;3.30;;
8401;SDS011;4238;48.404;9.498;2023-07-22T17:34:36;3.72;;;3.40;;
8401;SDS011;4238;48.404;9.498;2023-07-22T17:37:02;3.90;;;3.60;;
8401;SDS011;4238;48.404;9.498;2023-07-22T17:39:31;3.58;;;3.28;;
8401;SDS011;4238;48.404;9.498;2023-07-22T17:41:58;4.93;;;3.53;;
8401;SDS011;4238;48.404;9.498;2023-07-22T17:44:25;3.50;;;3.20;;
8401;SDS011;4238;48.404;9.498;2023-07-22T17:46:53;3.15;;;2.95;;
8401;SDS011;4238;48.404;9.498;2023-07-22T17:49:20;3.97;;;3.33;;
8401;SDS011;4238;48.404;9.498;2023-07-22T17:51:47;3.50;;;3.20;;
8401;SDS011;4238;48.404;9.498;2023-07-22T17:54:14;3.45;;;3.15;;
8401;SDS011;4238;48.404;9.498;2023-07-22T17:56:42;3.65;;;3.20;;
8401;SDS011;4238;48.404;9.498;2023-07-22T17:59:09;5.07;;;3.15;;
8401;SDS011;4238;48.404;9.498;2023-07-22T18:01:36;3.95;;;3.65;;
8401;SDS011;4238;48.404;9.498;2023-07-22T18:04:03;3.65;;;3.00;;
8401;SDS011;4238;48.404;9.498;2023-07-22T18:06:30;3.60;;;3.30;;
8401;SDS011;4238;48.404;9.498;2023-07-22T18:08:57;3.20;;;2.97;;
8401;SDS011;4238;48.404;9.498;2023-07-22T18:11:24;4.03;;;3.63;;
8401;SDS011;4238;48.404;9.498;2023-07-22T18:13:52;3.60;;;3.05;;
8401;SDS011;4238;48.404;9.498;2023-07-22T18:16:19;3.42;;;3.13;;
8401;SDS011;4238;48.404;9.498;2023-07-22T18:18:46;3.80;;;3.22;;
8401;SDS011;4238;48.404;9.498;2023-07-22T18:21:13;3.50;;;3.20;;
8401;SDS011;4238;48.404;9.498;2023-07-22T18:23:40;3.80;;;3.50;;
8401;SDS011;4238;48.404;9.498;2023-07-22T18:26:07;4.03;;;3.70;;
8401;SDS011;4238;48.404;9.498;2023-07-22T18:28:33;3.20;;;2.90;;
8401;SDS011;4238;48.404;9.498;2023-07-22T18:31:02;3.42;;;3.22;;
8401;SDS011;4238;48.404;9.498;2023-07-22T18:33:29;4.13;;;3.75;;
8401;SDS011;4238;48.404;9.498;2023-07-22T18:35:55;3.67;;;3.38;;
8401;SDS011;4238;48.404;9.498;2023-07-22T18:38:23;3.40;;;3.20;;
8401;SDS011;4238;48.404;9.498;2023-07-22T18:40:52;3.53;;;3.30;;
8401;SDS011;4238;48.404;9.498;2023-07-22T18:43:19;3.70;;;3.40;;
8401;SDS011;4238;48.404;9.498;2023-07-22T18:45:46;3.35;;;3.08;;
8401;SDS011;4238;48.404;9.498;2023-07-22T18:48:14;3.50;;;3.20;;
8401;SDS011;4238;48.404;9.498;2023-07-22T18:50:41;3.67;;;3.30;;
8401;SDS011;4238;48.404;9.498;2023-07-22T18:53:08;3.17;;;2.97;;
8401;SDS011;4238;48.404;9.498;2023-07-22T18:55:35;3.35;;;3.05;;
8401;SDS011;4238;48.404;9.498;2023-07-22T18:58:02;3.28;;;2.92;;
8401;SDS011;4238;48.404;9.498;2023-07-22T19:00:29;4.03;;;3.50;;
8401;SDS011;4238;48.404;9.498;2023-07-22T19:02:56;3.15;;;2.95;;
8401;SDS011;4238;48.404;9.498;2023-07-22T19:05:24;3.78;;;3.47;;
8401;SDS011;4238;48.404;9.498;2023-07-22T19:07:51;5.75;;;3.53;;
8401;SDS011;4238;48.404;9.498;2023-07-22T19:10:18;3.40;;;3.10;;
8401;SDS011;4238;48.404;9.498;2023-07-22T19:12:45;3.47;;;3.17;;
8401;SDS011;4238;48.404;9.498;2023-07-22T19:15:12;3.25;;;3.05;;
8401;SDS011;4238;48.404;9.498;2023-07-22T19:17:39;4.03;;;3.72;;
8401;SDS011;4238;48.404;9.498;2023-07-22T19:20:06;3.58;;;3.28;;
8401;SDS011;4238;48.404;9.498;2023-07-22T19:22:35;4.05;;;3.25;;
8401;SDS011;4238;48.404;9.498;2023-07-22T19:25:01;3.80;;;3.50;;